Time;durP1;ratioP1;P1;durP2;ratioP2;P2;SDS_P1;SDS_P2;PMS_P1;PMS_P2;Temp;Humidity;BMP_temperature;BMP_pressure;BME280_temperature;BME280_humidity;BME280_pressure;Samples;Min_cycle;Max_cycle;Signal;HPM_P1;HPM_P2
2022/11/24 00:02:28;;;;;;;11.13;7.00;;;;;;;;;;5101250;28;20272;-65
2022/11/24 00:04:56;;;;;;;14.03;8.07;;;;;;;;;;5100393;28;20268;-66
2022/11/24 00:07:24;;;;;;;13.43;6.87;;;;;;;;;;5100137;28;20288;-66
2022/11/24 00:09:55;;;;;;;17.33;6.23;;;;;;;;;;5104293;28;20204;-65
2022/11/24 00:15:49;;;;;;;17.20;6.07;;;;;;;;;;5101166;28;20226;-63
2022/11/24 00:18:17;;;;;;;11.47;5.37;;;;;;;;;;5098799;28;20285;-63
2022/11/24 00:20:51;;;;;;;13.30;5.70;;;;;;;;;;5101476;28;20342;-63
2022/11/24 00:23:19;;;;;;;11.63;5.73;;;;;;;;;;5101233;28;20555;-63
2022/11/24 00:25:47;;;;;;;14.23;5.63;;;;;;;;;;5096693;28;20238;-63
2022/11/24 00:28:18;;;;;;;15.47;6.13;;;;;;;;;;5092271;28;20669;-63
2022/11/24 00:30:46;;;;;;;14.37;5.83;;;;;;;;;;5100783;28;20292;-63
2022/11/24 00:33:16;;;;;;;13.33;6.00;;;;;;;;;;5096691;28;20310;-64
2022/11/24 00:35:44;;;;;;;11.20;5.70;;;;;;;;;;5089688;28;20197;-64
2022/11/24 00:38:11;;;;;;;12.67;5.63;;;;;;;;;;5097982;28;20677;-63
2022/11/24 00:40:39;;;;;;;14.43;5.80;;;;;;;;;;5102469;28;20289;-63
2022/11/24 00:43:08;;;;;;;12.87;5.27;;;;;;;;;;5099521;28;20716;-65
2022/11/24 00:45:36;;;;;;;14.00;5.87;;;;;;;;;;5099047;28;20201;-65
2022/11/24 00:48:04;;;;;;;10.90;5.80;;;;;;;;;;5097408;28;20201;-65
2022/11/24 00:50:34;;;;;;;14.57;6.30;;;;;;;;;;5103531;28;20297;-65
2022/11/24 00:53:02;;;;;;;12.23;6.07;;;;;;;;;;5102657;28;20302;-66
2022/11/24 00:55:30;;;;;;;10.27;5.37;;;;;;;;;;5101390;28;20280;-65
2022/11/24 00:57:58;;;;;;;15.30;6.47;;;;;;;;;;5098183;28;20213;-66
2022/11/24 01:00:26;;;;;;;11.73;6.00;;;;;;;;;;5105766;28;20259;-66
2022/11/24 01:02:54;;;;;;;13.60;6.87;;;;;;;;;;5098080;28;20225;-66
2022/11/24 01:05:22;;;;;;;10.27;5.87;;;;;;;;;;5098142;28;20637;-65
2022/11/24 01:07:51;;;;;;;14.60;5.93;;;;;;;;;;5101801;28;20236;-65
2022/11/24 01:10:19;;;;;;;11.10;5.90;;;;;;;;;;5099874;28;20726;-62
2022/11/24 01:12:54;;;;;;;13.17;5.77;;;;;;;;;;5101847;28;20225;-64
2022/11/24 01:15:22;;;;;;;12.43;6.17;;;;;;;;;;5097025;28;20232;-64
2022/11/24 01:17:53;;;;;;;10.27;5.83;;;;;;;;;;5096825;28;20288;-64
2022/11/24 01:20:23;;;;;;;11.77;6.40;;;;;;;;;;5098848;28;20278;-63
2022/11/24 01:22:53;;;;;;;11.20;5.97;;;;;;;;;;5099810;28;20316;-64
2022/11/24 01:25:21;;;;;;;12.47;6.63;;;;;;;;;;5108554;28;20249;-63
2022/11/24 01:27:49;;;;;;;14.93;5.73;;;;;;;;;;5104824;28;20230;-62
2022/11/24 01:30:17;;;;;;;18.50;6.63;;;;;;;;;;5105556;28;20230;-63
2022/11/24 01:32:45;;;;;;;11.63;6.00;;;;;;;;;;5107900;28;20284;-63
2022/11/24 01:35:13;;;;;;;12.50;6.00;;;;;;;;;;5108494;28;20322;-63
2022/11/24 01:37:41;;;;;;;11.53;6.53;;;;;;;;;;5107700;28;20234;-63
2022/11/24 01:40:12;;;;;;;15.83;6.37;;;;;;;;;;5108228;28;20205;-63
2022/11/24 01:42:42;;;;;;;14.67;6.30;;;;;;;;;;5106691;28;20224;-63
2022/11/24 01:45:29;;;;;;;14.57;5.90;;;;;;;;;;5108041;28;20248;-63
2022/11/24 01:48:01;;;;;;;9.33;5.60;;;;;;;;;;5107542;28;20212;-63
2022/11/24 01:50:34;;;;;;;10.23;5.57;;;;;;;;;;5108654;28;20547;-63
2022/11/24 01:53:02;;;;;;;15.47;6.23;;;;;;;;;;5107547;28;20300;-63
2022/11/24 01:55:34;;;;;;;10.17;5.20;;;;;;;;;;5108065;28;20692;-64
2022/11/24 01:58:05;;;;;;;10.13;6.20;;;;;;;;;;5105294;28;20229;-63
2022/11/24 02:00:34;;;;;;;9.27;5.03;;;;;;;;;;5108344;28;20257;-64
2022/11/24 02:03:02;;;;;;;13.30;5.40;;;;;;;;;;5105531;28;20205;-64
2022/11/24 02:05:33;;;;;;;18.00;5.70;;;;;;;;;;5107589;28;20661;-64
2022/11/24 02:08:02;;;;;;;15.03;5.60;;;;;;;;;;5104234;28;20236;-64
2022/11/24 02:10:30;;;;;;;13.90;5.53;;;;;;;;;;5108661;28;20198;-63
2022/11/24 02:13:00;;;;;;;10.77;5.27;;;;;;;;;;5106885;28;20248;-63
2022/11/24 02:15:28;;;;;;;13.50;5.63;;;;;;;;;;5107509;28;20252;-64
2022/11/24 02:17:58;;;;;;;11.43;5.17;;;;;;;;;;5099600;28;20205;-63
2022/11/24 02:20:26;;;;;;;14.47;4.97;;;;;;;;;;5098691;28;20208;-63
2022/11/24 02:22:57;;;;;;;13.07;6.10;;;;;;;;;;5098309;28;20232;-63
2022/11/24 02:25:29;;;;;;;11.30;4.70;;;;;;;;;;5097789;28;20257;-63
2022/11/24 02:28:03;;;;;;;12.70;5.47;;;;;;;;;;5098068;28;20269;-63
2022/11/24 02:30:31;;;;;;;10.30;5.03;;;;;;;;;;5097661;28;20244;-64
2022/11/24 02:32:59;;;;;;;8.07;4.67;;;;;;;;;;5096973;28;20248;-64
2022/11/24 02:35:28;;;;;;;12.40;5.57;;;;;;;;;;5096192;28;20259;-64
2022/11/24 02:37:56;;;;;;;12.57;5.47;;;;;;;;;;5096863;28;20693;-63
2022/11/24 02:40:26;;;;;;;11.03;5.53;;;;;;;;;;5096741;28;20229;-63
2022/11/24 02:42:55;;;;;;;11.13;5.90;;;;;;;;;;5096621;28;20840;-63
2022/11/24 02:45:25;;;;;;;14.73;5.43;;;;;;;;;;5096400;28;20268;-63
2022/11/24 02:47:53;;;;;;;7.80;5.80;;;;;;;;;;5091219;28;20240;-63
2022/11/24 02:50:21;;;;;;;15.03;6.03;;;;;;;;;;5098545;28;20233;-64
2022/11/24 02:52:49;;;;;;;11.63;5.73;;;;;;;;;;5098328;28;20257;-64
2022/11/24 02:55:17;;;;;;;14.53;6.23;;;;;;;;;;5098209;28;20252;-63
2022/11/24 02:57:45;;;;;;;9.97;5.50;;;;;;;;;;5097234;28;20699;-63
2022/11/24 03:00:14;;;;;;;9.83;5.17;;;;;;;;;;5098299;28;20233;-63
2022/11/24 03:02:43;;;;;;;13.53;5.47;;;;;;;;;;5098215;28;20266;-64
2022/11/24 03:05:12;;;;;;;10.23;4.97;;;;;;;;;;5098048;28;20284;-63
2022/11/24 03:07:40;;;;;;;9.40;4.97;;;;;;;;;;5093795;28;20745;-63
2022/11/24 03:10:09;;;;;;;7.80;4.40;;;;;;;;;;5098097;28;20236;-63
2022/11/24 03:12:38;;;;;;;12.97;5.87;;;;;;;;;;5097849;28;20244;-64
2022/11/24 03:15:06;;;;;;;10.37;5.20;;;;;;;;;;5097792;28;20260;-63
2022/11/24 03:17:34;;;;;;;8.27;4.63;;;;;;;;;;5095421;28;20237;-63
2022/11/24 03:20:04;;;;;;;9.53;4.67;;;;;;;;;;5100931;28;20240;-63
2022/11/24 03:22:32;;;;;;;6.17;4.77;;;;;;;;;;5098041;28;20205;-63
2022/11/24 03:25:00;;;;;;;9.20;5.60;;;;;;;;;;5098087;28;20232;-63
2022/11/24 03:27:28;;;;;;;10.10;4.60;;;;;;;;;;5084632;28;20229;-64
2022/11/24 03:29:56;;;;;;;12.10;4.47;;;;;;;;;;5097842;28;20728;-63
2022/11/24 03:32:24;;;;;;;8.53;4.33;;;;;;;;;;5098152;28;20284;-63
2022/11/24 03:34:52;;;;;;;6.73;4.40;;;;;;;;;;5097919;28;20261;-63
2022/11/24 03:37:21;;;;;;;9.57;4.47;;;;;;;;;;5097205;28;20202;-63
2022/11/24 03:39:49;;;;;;;11.37;5.03;;;;;;;;;;5097743;28;20201;-63
2022/11/24 03:42:17;;;;;;;12.30;4.80;;;;;;;;;;5096848;28;20240;-63
2022/11/24 03:44:45;;;;;;;11.93;4.77;;;;;;;;;;5097757;28;20252;-63
2022/11/24 03:47:13;;;;;;;13.43;5.20;;;;;;;;;;5096560;28;20701;-63
2022/11/24 03:49:41;;;;;;;8.50;4.33;;;;;;;;;;5097553;28;20217;-63
2022/11/24 03:52:09;;;;;;;7.57;4.63;;;;;;;;;;5097954;28;20285;-63
2022/11/24 03:54:39;;;;;;;7.67;4.87;;;;;;;;;;5097556;28;20300;-63
2022/11/24 03:57:07;;;;;;;11.00;5.33;;;;;;;;;;5096761;28;20232;-63
2022/11/24 03:59:35;;;;;;;7.00;5.13;;;;;;;;;;5097664;28;20201;-63
2022/11/24 04:02:03;;;;;;;7.97;5.00;;;;;;;;;;5097476;28;20227;-63
2022/11/24 04:04:31;;;;;;;12.93;5.47;;;;;;;;;;5097432;28;20236;-64
2022/11/24 04:07:00;;;;;;;7.90;4.40;;;;;;;;;;5096905;28;20251;-63
2022/11/24 04:09:28;;;;;;;7.53;4.10;;;;;;;;;;5097361;28;20233;-63
2022/11/24 04:14:43;;;;;;;12.33;5.57;;;;;;;;;;5097469;28;20232;-63
2022/11/24 04:17:10;;;;;;;9.67;4.67;;;;;;;;;;5093757;28;20225;-63
2022/11/24 04:19:38;;;;;;;9.63;4.70;;;;;;;;;;5088963;28;20240;-63
2022/11/24 04:22:06;;;;;;;11.00;4.73;;;;;;;;;;5097252;28;20209;-63
2022/11/24 04:24:35;;;;;;;8.77;5.17;;;;;;;;;;5097189;28;20257;-63
2022/11/24 04:27:04;;;;;;;7.60;4.73;;;;;;;;;;5096086;28;20210;-63
2022/11/24 04:29:32;;;;;;;8.60;4.27;;;;;;;;;;5097506;28;20237;-63
2022/11/24 04:32:00;;;;;;;11.80;4.90;;;;;;;;;;5097515;28;20252;-63
2022/11/24 04:34:28;;;;;;;7.67;4.20;;;;;;;;;;5097183;28;20751;-63
2022/11/24 04:36:56;;;;;;;10.37;6.13;;;;;;;;;;5096593;28;20205;-63
2022/11/24 04:39:24;;;;;;;11.83;6.90;;;;;;;;;;5097038;28;20213;-62
2022/11/24 04:41:55;;;;;;;9.00;5.57;;;;;;;;;;5096749;28;20221;-63
2022/11/24 04:44:24;;;;;;;7.43;5.23;;;;;;;;;;5097311;28;20253;-63
2022/11/24 04:46:53;;;;;;;10.03;5.30;;;;;;;;;;5090675;28;20233;-63
2022/11/24 04:49:21;;;;;;;10.03;4.40;;;;;;;;;;5094907;28;20614;-63
2022/11/24 04:51:49;;;;;;;9.20;5.60;;;;;;;;;;5088928;28;20233;-63
2022/11/24 04:54:17;;;;;;;13.47;5.40;;;;;;;;;;5098265;28;20289;-63
2022/11/24 04:56:45;;;;;;;8.20;5.13;;;;;;;;;;5099466;28;20262;-63
2022/11/24 04:59:14;;;;;;;10.70;5.47;;;;;;;;;;5100534;28;20233;-62
2022/11/24 05:01:43;;;;;;;10.10;5.03;;;;;;;;;;5100746;28;20239;-63
2022/11/24 05:04:12;;;;;;;10.57;4.93;;;;;;;;;;5100626;28;20693;-62
2022/11/24 05:06:40;;;;;;;10.70;5.03;;;;;;;;;;5089301;28;20316;-62
2022/11/24 05:09:08;;;;;;;11.90;5.73;;;;;;;;;;5099937;28;20711;-62
2022/11/24 05:11:36;;;;;;;12.17;5.23;;;;;;;;;;5097846;28;20213;-63
2022/11/24 05:14:04;;;;;;;12.33;5.77;;;;;;;;;;5100515;28;20231;-63
2022/11/24 05:16:32;;;;;;;9.83;5.17;;;;;;;;;;5098180;28;20201;-63
2022/11/24 05:19:02;;;;;;;12.73;5.67;;;;;;;;;;5100515;28;20198;-63
2022/11/24 05:21:30;;;;;;;9.40;5.20;;;;;;;;;;5099143;28;20201;-63
2022/11/24 05:23:58;;;;;;;7.73;4.93;;;;;;;;;;5098459;28;20689;-63
2022/11/24 05:26:26;;;;;;;11.00;4.77;;;;;;;;;;5099030;28;20205;-63
2022/11/24 05:28:54;;;;;;;9.47;5.53;;;;;;;;;;5100345;28;20206;-63
2022/11/24 05:31:23;;;;;;;10.23;4.97;;;;;;;;;;5099160;28;20675;-63
2022/11/24 05:33:51;;;;;;;10.07;5.20;;;;;;;;;;5097578;28;20245;-63
2022/11/24 05:39:20;;;;;;;13.43;6.33;;;;;;;;;;5047552;28;20209;-62
2022/11/24 05:41:48;;;;;;;15.77;9.23;;;;;;;;;;5043221;28;20206;-62
2022/11/24 05:44:16;;;;;;;15.27;8.93;;;;;;;;;;5068955;28;20264;-62
2022/11/24 05:46:45;;;;;;;15.43;8.03;;;;;;;;;;5100884;28;20216;-62
2022/11/24 05:49:13;;;;;;;18.10;7.27;;;;;;;;;;5095954;28;20228;-63
2022/11/24 05:51:42;;;;;;;12.77;7.13;;;;;;;;;;5099177;28;20209;-63
2022/11/24 05:54:11;;;;;;;11.73;6.30;;;;;;;;;;5094652;28;20214;-62
2022/11/24 05:56:39;;;;;;;13.13;6.37;;;;;;;;;;5099074;28;20219;-62
2022/11/24 05:59:07;;;;;;;10.90;6.43;;;;;;;;;;5099442;28;20193;-63
2022/11/24 06:01:37;;;;;;;12.67;6.57;;;;;;;;;;5097594;28;20235;-62
2022/11/24 06:04:05;;;;;;;14.97;7.87;;;;;;;;;;5088986;28;20305;-63
2022/11/24 06:06:33;;;;;;;10.47;6.67;;;;;;;;;;5096874;28;20233;-63
2022/11/24 06:09:03;;;;;;;14.90;7.93;;;;;;;;;;5099692;28;20216;-62
2022/11/24 06:11:31;;;;;;;11.83;7.10;;;;;;;;;;5095144;28;20560;-62
2022/11/24 06:13:59;;;;;;;18.43;6.87;;;;;;;;;;5081563;28;20233;-63
2022/11/24 06:16:27;;;;;;;15.90;6.50;;;;;;;;;;5083037;28;20691;-63
2022/11/24 06:18:55;;;;;;;9.43;7.40;;;;;;;;;;5099071;28;20262;-62
2022/11/24 06:21:23;;;;;;;13.57;7.20;;;;;;;;;;5098297;28;20201;-63
2022/11/24 06:23:51;;;;;;;9.73;6.97;;;;;;;;;;5099142;28;20221;-63
2022/11/24 06:26:20;;;;;;;11.60;7.03;;;;;;;;;;5098752;28;20205;-63
2022/11/24 06:28:48;;;;;;;13.00;6.80;;;;;;;;;;5098808;28;20600;-62
2022/11/24 06:31:16;;;;;;;11.10;6.83;;;;;;;;;;5097972;28;20204;-62
2022/11/24 06:33:44;;;;;;;11.10;6.80;;;;;;;;;;5098795;28;20229;-62
2022/11/24 06:36:13;;;;;;;11.70;6.90;;;;;;;;;;5099191;28;20715;-62
2022/11/24 06:38:41;;;;;;;10.93;7.33;;;;;;;;;;5098411;28;20201;-61
2022/11/24 06:41:11;;;;;;;13.73;8.07;;;;;;;;;;5101856;28;20568;-62
2022/11/24 06:43:41;;;;;;;22.47;10.90;;;;;;;;;;5098099;28;20235;-63
2022/11/24 06:46:08;;;;;;;23.43;11.77;;;;;;;;;;5095227;28;20205;-62
2022/11/24 06:48:37;;;;;;;22.77;11.57;;;;;;;;;;5092096;28;20193;-63
2022/11/24 06:51:08;;;;;;;24.57;12.33;;;;;;;;;;5097986;28;20203;-62
2022/11/24 06:53:40;;;;;;;28.43;12.33;;;;;;;;;;5098236;28;20221;-63
2022/11/24 06:56:09;;;;;;;22.77;12.40;;;;;;;;;;5090696;28;20593;-63
2022/11/24 06:58:45;;;;;;;25.47;11.30;;;;;;;;;;5087299;28;20701;-63
2022/11/24 07:01:14;;;;;;;19.13;9.67;;;;;;;;;;5098481;28;20197;-63
2022/11/24 07:03:43;;;;;;;16.23;7.80;;;;;;;;;;5097510;28;20217;-63
2022/11/24 07:06:11;;;;;;;19.83;11.90;;;;;;;;;;5086333;28;20222;-63
2022/11/24 07:08:40;;;;;;;13.90;7.80;;;;;;;;;;5096728;28;20202;-63
2022/11/24 07:11:10;;;;;;;11.93;7.57;;;;;;;;;;5085815;28;20198;-63
2022/11/24 07:13:41;;;;;;;12.00;7.70;;;;;;;;;;5097916;28;20221;-64
2022/11/24 07:16:16;;;;;;;12.47;6.77;;;;;;;;;;5095734;28;20225;-63
2022/11/24 07:18:46;;;;;;;15.90;7.43;;;;;;;;;;5091746;28;20542;-63
2022/11/24 07:21:14;;;;;;;17.67;6.50;;;;;;;;;;5111739;28;20204;-63
2022/11/24 07:23:43;;;;;;;14.63;7.20;;;;;;;;;;5093922;28;20729;-62
2022/11/24 07:26:11;;;;;;;11.93;7.10;;;;;;;;;;5084703;28;20276;-63
2022/11/24 07:28:40;;;;;;;12.13;7.20;;;;;;;;;;5097840;28;20209;-63
2022/11/24 07:31:09;;;;;;;18.53;7.63;;;;;;;;;;5096737;28;20200;-63
2022/11/24 07:33:38;;;;;;;13.83;7.13;;;;;;;;;;5088224;28;20302;-63
2022/11/24 07:36:10;;;;;;;14.63;7.30;;;;;;;;;;5118035;28;20779;-63
2022/11/24 07:38:38;;;;;;;14.23;6.73;;;;;;;;;;5117226;28;20205;-63
2022/11/24 07:41:08;;;;;;;11.60;6.70;;;;;;;;;;5085329;28;20237;-64
2022/11/24 07:43:38;;;;;;;15.30;6.90;;;;;;;;;;5092198;28;20249;-64
2022/11/24 07:46:07;;;;;;;17.23;7.87;;;;;;;;;;5097907;28;20550;-63
2022/11/24 07:48:35;;;;;;;14.83;6.53;;;;;;;;;;5097491;28;20617;-63
2022/11/24 07:51:05;;;;;;;17.77;6.20;;;;;;;;;;5096857;28;20281;-64
2022/11/24 07:53:34;;;;;;;11.90;7.00;;;;;;;;;;5083180;28;20271;-64
2022/11/24 07:56:03;;;;;;;16.63;6.43;;;;;;;;;;5093776;28;20657;-63
2022/11/24 07:58:32;;;;;;;11.97;5.70;;;;;;;;;;5097488;28;20226;-63
2022/11/24 08:01:01;;;;;;;10.70;5.13;;;;;;;;;;5098096;28;20213;-63
2022/11/24 08:03:29;;;;;;;9.47;5.40;;;;;;;;;;5096967;28;20323;-64
2022/11/24 08:05:57;;;;;;;12.00;5.50;;;;;;;;;;5097587;28;20248;-63
2022/11/24 08:08:47;;;;;;;9.03;5.43;;;;;;;;;;5097460;28;20205;-64
2022/11/24 08:11:16;;;;;;;8.20;5.47;;;;;;;;;;5097193;28;20205;-62
2022/11/24 08:13:44;;;;;;;11.60;5.47;;;;;;;;;;5087073;28;20225;-62
2022/11/24 08:16:13;;;;;;;15.70;7.33;;;;;;;;;;5093517;28;20225;-63
2022/11/24 08:18:42;;;;;;;17.50;8.07;;;;;;;;;;5089694;28;20254;-63
2022/11/24 08:21:12;;;;;;;12.67;6.93;;;;;;;;;;5097755;28;20202;-62
2022/11/24 08:23:41;;;;;;;10.27;5.77;;;;;;;;;;5096477;28;20233;-62
2022/11/24 08:26:13;;;;;;;12.53;6.53;;;;;;;;;;5097300;28;20284;-64
2022/11/24 08:28:41;;;;;;;10.93;5.93;;;;;;;;;;5097988;28;20210;-62
2022/11/24 08:31:11;;;;;;;12.40;5.87;;;;;;;;;;5096676;28;20245;-64
2022/11/24 08:33:43;;;;;;;10.63;6.80;;;;;;;;;;5090668;28;20296;-62
2022/11/24 08:36:15;;;;;;;12.87;7.37;;;;;;;;;;5108379;28;20732;-62
2022/11/24 08:38:44;;;;;;;10.60;6.20;;;;;;;;;;5097525;28;20655;-63
2022/11/24 08:41:14;;;;;;;14.63;6.47;;;;;;;;;;5100910;28;20220;-62
2022/11/24 08:43:43;;;;;;;17.07;8.07;;;;;;;;;;5100792;28;20225;-61
2022/11/24 08:46:12;;;;;;;17.00;7.70;;;;;;;;;;5095518;28;20274;-63
2022/11/24 08:48:40;;;;;;;15.63;7.20;;;;;;;;;;5088028;28;20209;-63
2022/11/24 08:51:12;;;;;;;13.00;6.20;;;;;;;;;;5101543;28;20258;-63
2022/11/24 08:53:41;;;;;;;12.80;6.40;;;;;;;;;;5102994;28;20217;-63
2022/11/24 08:56:09;;;;;;;12.07;6.47;;;;;;;;;;5099437;28;20218;-62
2022/11/24 08:58:39;;;;;;;10.87;5.50;;;;;;;;;;5100497;28;20208;-62
2022/11/24 09:01:08;;;;;;;10.43;5.87;;;;;;;;;;5100804;28;20349;-61
2022/11/24 09:03:37;;;;;;;16.37;5.87;;;;;;;;;;5098978;28;20638;-62
2022/11/24 09:06:06;;;;;;;24.30;7.80;;;;;;;;;;5088725;28;20234;-63
2022/11/24 09:08:35;;;;;;;12.10;5.73;;;;;;;;;;5100310;28;20266;-61
2022/11/24 09:11:10;;;;;;;16.17;6.17;;;;;;;;;;5100565;28;20293;-61
2022/11/24 09:13:40;;;;;;;13.63;6.37;;;;;;;;;;5100591;28;20259;-62
2022/11/24 09:16:09;;;;;;;15.00;7.30;;;;;;;;;;5097545;28;20214;-62
2022/11/24 09:18:39;;;;;;;9.43;6.27;;;;;;;;;;5089829;28;20198;-62
2022/11/24 09:21:08;;;;;;;10.70;5.47;;;;;;;;;;5094779;28;20238;-62
2022/11/24 09:23:37;;;;;;;14.23;6.10;;;;;;;;;;5093287;28;20584;-63
2022/11/24 09:26:07;;;;;;;15.03;6.17;;;;;;;;;;5099907;28;20204;-63
2022/11/24 09:28:35;;;;;;;11.47;5.33;;;;;;;;;;5099622;28;20202;-62
2022/11/24 09:31:06;;;;;;;11.50;5.87;;;;;;;;;;5100193;28;20217;-62
2022/11/24 09:33:39;;;;;;;14.73;6.73;;;;;;;;;;5096844;28;20225;-62
2022/11/24 09:36:08;;;;;;;11.67;6.00;;;;;;;;;;5107045;28;20221;-63
2022/11/24 09:38:37;;;;;;;12.50;5.33;;;;;;;;;;5099072;28;20225;-64
2022/11/24 09:41:18;;;;;;;9.83;5.90;;;;;;;;;;5099573;28;20198;-61
2022/11/24 09:43:49;;;;;;;11.40;6.73;;;;;;;;;;5118949;28;20632;-62
2022/11/24 09:46:21;;;;;;;8.67;5.90;;;;;;;;;;5120334;28;20204;-62
2022/11/24 09:48:53;;;;;;;13.77;6.40;;;;;;;;;;5085857;28;20649;-63
2022/11/24 09:51:25;;;;;;;14.53;5.60;;;;;;;;;;5100130;28;20205;-63
2022/11/24 09:53:56;;;;;;;14.90;5.90;;;;;;;;;;5099728;28;20732;-63
2022/11/24 09:56:25;;;;;;;10.40;5.70;;;;;;;;;;5098843;28;20232;-62
2022/11/24 09:58:54;;;;;;;6.60;4.93;;;;;;;;;;5097237;28;20201;-63
2022/11/24 10:01:26;;;;;;;10.03;5.00;;;;;;;;;;5100132;28;20198;-63
2022/11/24 10:03:56;;;;;;;13.33;5.73;;;;;;;;;;5091228;28;20225;-63
2022/11/24 10:06:37;;;;;;;11.30;5.70;;;;;;;;;;5100020;28;20233;-63
2022/11/24 10:09:18;;;;;;;11.20;5.33;;;;;;;;;;5099968;28;20248;-63
2022/11/24 10:11:57;;;;;;;8.17;4.67;;;;;;;;;;5097785;28;20235;-66
2022/11/24 10:14:38;;;;;;;10.43;6.23;;;;;;;;;;5097587;28;20274;-63
2022/11/24 10:17:13;;;;;;;11.57;5.17;;;;;;;;;;5096862;28;20259;-63
2022/11/24 10:19:46;;;;;;;11.17;4.27;;;;;;;;;;5086899;28;20209;-63
2022/11/24 10:22:27;;;;;;;10.23;4.77;;;;;;;;;;5098588;28;20232;-63
2022/11/24 10:25:05;;;;;;;14.93;5.23;;;;;;;;;;5099808;28;20232;-63
2022/11/24 10:27:35;;;;;;;10.83;5.17;;;;;;;;;;5099314;28;20284;-62
2022/11/24 10:30:12;;;;;;;9.37;5.03;;;;;;;;;;5096002;28;20221;-62
2022/11/24 10:32:44;;;;;;;9.63;4.90;;;;;;;;;;5094357;28;20221;-62
2022/11/24 10:35:15;;;;;;;10.27;5.00;;;;;;;;;;5093703;28;20213;-62
2022/11/24 10:37:45;;;;;;;11.80;5.40;;;;;;;;;;5101388;28;20308;-61
2022/11/24 10:40:18;;;;;;;10.90;5.43;;;;;;;;;;5100538;28;20247;-62
2022/11/24 10:43:11;;;;;;;11.50;5.07;;;;;;;;;;5100439;28;20201;-62
2022/11/24 10:45:40;;;;;;;12.73;4.93;;;;;;;;;;5092489;28;20289;-62
2022/11/24 10:48:13;;;;;;;7.93;4.73;;;;;;;;;;5093971;28;20209;-62
2022/11/24 10:50:41;;;;;;;7.07;4.33;;;;;;;;;;5092186;28;20229;-62
2022/11/24 10:53:16;;;;;;;9.10;4.13;;;;;;;;;;5094189;28;20209;-62
2022/11/24 10:56:01;;;;;;;14.53;4.80;;;;;;;;;;5099246;28;20691;-61
2022/11/24 10:58:30;;;;;;;9.30;4.67;;;;;;;;;;5095727;28;20700;-61
2022/11/24 11:01:19;;;;;;;14.27;5.83;;;;;;;;;;5099032;28;20231;-61
2022/11/24 11:03:49;;;;;;;12.47;5.03;;;;;;;;;;5097279;28;20229;-61
2022/11/24 11:06:22;;;;;;;7.90;4.07;;;;;;;;;;5099515;28;20764;-62
2022/11/24 11:08:53;;;;;;;9.17;4.00;;;;;;;;;;5098149;28;20652;-61
2022/11/24 11:11:22;;;;;;;9.43;3.90;;;;;;;;;;5098365;28;20223;-61
2022/11/24 11:13:54;;;;;;;10.77;4.23;;;;;;;;;;5093595;28;20731;-61
2022/11/24 11:16:35;;;;;;;11.30;3.80;;;;;;;;;;5096718;28;20329;-61
2022/11/24 11:19:05;;;;;;;6.97;3.97;;;;;;;;;;5099953;28;20198;-62
2022/11/24 11:22:00;;;;;;;13.50;4.77;;;;;;;;;;5097039;28;20220;-62
2022/11/24 11:24:28;;;;;;;10.10;3.90;;;;;;;;;;5098104;28;20217;-62
2022/11/24 11:26:59;;;;;;;9.90;3.23;;;;;;;;;;5098738;28;20297;-62
2022/11/24 11:29:28;;;;;;;6.90;3.20;;;;;;;;;;5084750;28;20548;-62
2022/11/24 11:32:18;;;;;;;8.90;3.20;;;;;;;;;;5094365;28;20791;-62
2022/11/24 11:35:11;;;;;;;7.27;3.10;;;;;;;;;;5090757;28;20221;-62
2022/11/24 11:37:40;;;;;;;15.63;3.40;;;;;;;;;;5097854;28;20317;-62
2022/11/24 11:40:13;;;;;;;5.97;3.90;;;;;;;;;;5097742;28;20216;-62
2022/11/24 11:42:42;;;;;;;8.37;3.67;;;;;;;;;;5095804;28;20204;-62
2022/11/24 11:45:32;;;;;;;8.80;3.60;;;;;;;;;;5099668;28;20201;-61
2022/11/24 11:48:07;;;;;;;8.53;3.50;;;;;;;;;;5105892;28;20213;-61
2022/11/24 11:50:41;;;;;;;8.37;3.57;;;;;;;;;;5106315;28;20196;-61
2022/11/24 11:53:31;;;;;;;9.23;3.03;;;;;;;;;;5100372;28;20220;-62
2022/11/24 11:56:03;;;;;;;9.33;3.40;;;;;;;;;;5098909;28;20281;-62
2022/11/24 11:58:42;;;;;;;10.03;3.30;;;;;;;;;;5097427;28;20720;-62
2022/11/24 12:01:17;;;;;;;7.83;2.80;;;;;;;;;;5088339;28;20206;-62
2022/11/24 12:03:57;;;;;;;7.40;3.30;;;;;;;;;;5097509;28;20307;-62
2022/11/24 12:06:34;;;;;;;10.50;3.50;;;;;;;;;;5101551;28;20600;-62
2022/11/24 12:09:10;;;;;;;10.00;3.73;;;;;;;;;;5102111;28;20197;-62
2022/11/24 12:11:53;;;;;;;11.47;3.40;;;;;;;;;;5094371;28;20270;-62
2022/11/24 12:14:26;;;;;;;7.07;2.77;;;;;;;;;;5101286;28;20217;-62
2022/11/24 12:16:59;;;;;;;7.77;3.57;;;;;;;;;;5094742;28;20205;-62
2022/11/24 12:19:31;;;;;;;7.40;3.37;;;;;;;;;;5091385;28;20224;-62
2022/11/24 12:22:06;;;;;;;9.00;2.80;;;;;;;;;;5121867;28;20236;-62
2022/11/24 12:24:37;;;;;;;8.83;2.97;;;;;;;;;;5105734;28;20312;-62
2022/11/24 12:27:10;;;;;;;6.83;3.13;;;;;;;;;;5100697;28;20206;-62
2022/11/24 12:29:59;;;;;;;10.90;3.70;;;;;;;;;;5101800;28;20288;-62
2022/11/24 12:32:36;;;;;;;7.67;3.53;;;;;;;;;;5098066;28;20563;-62
2022/11/24 12:35:12;;;;;;;8.93;3.50;;;;;;;;;;5094363;28;20234;-62
2022/11/24 12:37:50;;;;;;;8.63;4.37;;;;;;;;;;5099588;28;20225;-62
2022/11/24 12:40:23;;;;;;;10.00;3.40;;;;;;;;;;5093032;28;20694;-63
2022/11/24 12:42:56;;;;;;;10.27;3.90;;;;;;;;;;5122083;28;20205;-63
2022/11/24 12:45:32;;;;;;;6.47;3.17;;;;;;;;;;5120892;27;20263;-62
2022/11/24 12:48:18;;;;;;;4.60;2.83;;;;;;;;;;5094494;28;20204;-62
2022/11/24 12:50:46;;;;;;;9.80;3.33;;;;;;;;;;5101737;28;20262;-62
2022/11/24 12:53:17;;;;;;;6.27;3.17;;;;;;;;;;5114816;28;20637;-62
2022/11/24 12:55:46;;;;;;;7.70;3.03;;;;;;;;;;5117668;28;20208;-63
2022/11/24 12:58:16;;;;;;;5.80;3.03;;;;;;;;;;5100721;28;20259;-62
2022/11/24 13:00:52;;;;;;;8.77;3.40;;;;;;;;;;5100963;28;20292;-62
2022/11/24 13:03:27;;;;;;;12.17;3.60;;;;;;;;;;5100661;28;20584;-62
2022/11/24 13:05:57;;;;;;;10.90;3.50;;;;;;;;;;5097262;28;20229;-62
2022/11/24 13:08:28;;;;;;;6.47;3.33;;;;;;;;;;5088616;28;20201;-62
2022/11/24 13:11:16;;;;;;;11.90;3.93;;;;;;;;;;5100829;28;20572;-62
2022/11/24 13:13:56;;;;;;;9.83;3.43;;;;;;;;;;5100253;28;20225;-62
2022/11/24 13:16:24;;;;;;;8.80;3.40;;;;;;;;;;5096425;28;20208;-62
2022/11/24 13:19:09;;;;;;;10.20;3.43;;;;;;;;;;5099285;28;20702;-63
2022/11/24 13:21:50;;;;;;;9.43;3.80;;;;;;;;;;5099624;28;20209;-62
2022/11/24 13:24:24;;;;;;;11.30;3.90;;;;;;;;;;5100364;28;20226;-62
2022/11/24 13:26:53;;;;;;;8.20;3.83;;;;;;;;;;5100090;28;20206;-62
2022/11/24 13:29:33;;;;;;;4.97;2.77;;;;;;;;;;5100306;28;20208;-63
2022/11/24 13:32:33;;;;;;;8.23;3.77;;;;;;;;;;5099790;28;20284;-62
2022/11/24 13:35:03;;;;;;;9.50;3.73;;;;;;;;;;5037627;28;20237;-62
2022/11/24 13:37:50;;;;;;;6.37;3.97;;;;;;;;;;5037749;28;20296;-63
2022/11/24 13:40:39;;;;;;;7.43;4.60;;;;;;;;;;5074870;28;20571;-62
2022/11/24 13:43:22;;;;;;;9.00;3.43;;;;;;;;;;5094381;28;20287;-62
2022/11/24 13:45:51;;;;;;;10.20;3.37;;;;;;;;;;5100107;28;20216;-62
2022/11/24 13:48:40;;;;;;;8.17;3.33;;;;;;;;;;5100031;28;20216;-62
2022/11/24 13:51:14;;;;;;;6.10;2.77;;;;;;;;;;5099449;28;20197;-63
2022/11/24 13:53:43;;;;;;;13.60;3.83;;;;;;;;;;5099875;28;20227;-62
2022/11/24 13:56:22;;;;;;;10.77;3.00;;;;;;;;;;5099833;28;20231;-62
2022/11/24 13:58:51;;;;;;;13.23;3.20;;;;;;;;;;5099532;28;20229;-62
2022/11/24 14:01:20;;;;;;;9.13;3.80;;;;;;;;;;5098783;28;20197;-63
2022/11/24 14:03:59;;;;;;;8.97;3.67;;;;;;;;;;5099914;28;20260;-62
2022/11/24 14:06:49;;;;;;;10.93;3.20;;;;;;;;;;5099194;28;20324;-62
2022/11/24 14:09:25;;;;;;;4.97;2.77;;;;;;;;;;5099275;28;20679;-63
2022/11/24 14:12:03;;;;;;;8.50;3.17;;;;;;;;;;5098642;28;20279;-62
2022/11/24 14:14:31;;;;;;;10.10;3.33;;;;;;;;;;5099131;28;20221;-63
2022/11/24 14:17:16;;;;;;;10.23;3.10;;;;;;;;;;5096360;28;20201;-62
2022/11/24 14:19:45;;;;;;;10.73;3.50;;;;;;;;;;5086868;28;20225;-62
2022/11/24 14:22:16;;;;;;;10.17;3.67;;;;;;;;;;5098509;28;20208;-62
2022/11/24 14:24:45;;;;;;;12.40;4.17;;;;;;;;;;5094263;28;20292;-62
2022/11/24 14:27:16;;;;;;;7.80;3.63;;;;;;;;;;5098158;28;20664;-63
2022/11/24 14:29:54;;;;;;;11.53;3.40;;;;;;;;;;5099073;28;20593;-63
2022/11/24 14:32:23;;;;;;;10.20;3.13;;;;;;;;;;5098892;28;20564;-62
2022/11/24 14:34:52;;;;;;;10.93;3.20;;;;;;;;;;5098035;28;20218;-63
2022/11/24 14:37:21;;;;;;;9.07;3.57;;;;;;;;;;5098974;28;20228;-62
2022/11/24 14:39:49;;;;;;;12.10;3.70;;;;;;;;;;5099026;28;20221;-62
2022/11/24 14:42:19;;;;;;;6.90;3.50;;;;;;;;;;5098819;28;20212;-62
2022/11/24 14:44:50;;;;;;;14.10;4.07;;;;;;;;;;5096034;28;20714;-62
2022/11/24 14:47:21;;;;;;;7.13;3.67;;;;;;;;;;5088131;28;20645;-62
2022/11/24 14:49:58;;;;;;;9.57;3.30;;;;;;;;;;5098790;28;20198;-62
2022/11/24 14:52:26;;;;;;;12.07;3.33;;;;;;;;;;5098527;28;20718;-62
2022/11/24 14:54:55;;;;;;;7.93;3.40;;;;;;;;;;5097561;28;20225;-62
2022/11/24 14:57:26;;;;;;;13.97;3.43;;;;;;;;;;5098566;28;20205;-62
2022/11/24 15:00:15;;;;;;;7.30;2.90;;;;;;;;;;5098541;28;20229;-62
2022/11/24 15:02:47;;;;;;;8.53;3.27;;;;;;;;;;5098415;28;20296;-62
2022/11/24 15:05:15;;;;;;;6.77;2.97;;;;;;;;;;5090667;28;20261;-62
2022/11/24 15:07:43;;;;;;;12.80;3.77;;;;;;;;;;5085190;28;20210;-62